sensor_id;sensor_type;location;lat;lon;timestamp;P1;durP1;ratioP1;P2;durP2;ratioP2
72882;SDS011;61017;37.812;-122.286;2022-12-31T00:00:33;7.18;;;2.50;;
72882;SDS011;61017;37.812;-122.286;2022-12-31T00:02:25;8.73;;;2.30;;
72882;SDS011;61017;37.812;-122.286;2022-12-31T00:04:15;7.10;;;2.35;;
72882;SDS011;61017;37.812;-122.286;2022-12-31T00:08:24;7.65;;;2.65;;
72882;SDS011;61017;37.812;-122.286;2022-12-31T00:10:14;5.95;;;2.10;;
72882;SDS011;61017;37.812;-122.286;2022-12-31T00:12:05;7.85;;;2.50;;
72882;SDS011;61017;37.812;-122.286;2022-12-31T00:13:55;7.57;;;2.50;;
72882;SDS011;61017;37.812;-122.286;2022-12-31T00:15:45;7.75;;;2.45;;
72882;SDS011;61017;37.812;-122.286;2022-12-31T00:17:35;7.15;;;2.53;;
72882;SDS011;61017;37.812;-122.286;2022-12-31T00:19:26;6.78;;;2.50;;
72882;SDS011;61017;37.812;-122.286;2022-12-31T00:21:16;9.63;;;2.58;;
72882;SDS011;61017;37.812;-122.286;2022-12-31T00:23:08;6.97;;;2.60;;
72882;SDS011;61017;37.812;-122.286;2022-12-31T00:24:59;8.50;;;2.72;;
72882;SDS011;61017;37.812;-122.286;2022-12-31T00:26:49;9.05;;;2.83;;
72882;SDS011;61017;37.812;-122.286;2022-12-31T00:28:39;6.00;;;2.25;;
72882;SDS011;61017;37.812;-122.286;2022-12-31T00:30:30;8.23;;;2.50;;
72882;SDS011;61017;37.812;-122.286;2022-12-31T00:32:20;8.05;;;2.72;;
72882;SDS011;61017;37.812;-122.286;2022-12-31T00:34:10;9.15;;;2.80;;
72882;SDS011;61017;37.812;-122.286;2022-12-31T00:36:06;8.77;;;2.72;;
72882;SDS011;61017;37.812;-122.286;2022-12-31T00:38:01;8.07;;;3.00;;
72882;SDS011;61017;37.812;-122.286;2022-12-31T00:39:51;9.65;;;3.00;;
72882;SDS011;61017;37.812;-122.286;2022-12-31T00:41:42;7.05;;;2.90;;
72882;SDS011;61017;37.812;-122.286;2022-12-31T00:43:33;8.30;;;2.45;;
72882;SDS011;61017;37.812;-122.286;2022-12-31T00:45:23;6.95;;;2.30;;
72882;SDS011;61017;37.812;-122.286;2022-12-31T00:47:13;7.53;;;2.63;;
72882;SDS011;61017;37.812;-122.286;2022-12-31T00:49:03;8.23;;;2.80;;
72882;SDS011;61017;37.812;-122.286;2022-12-31T00:50:54;6.13;;;2.90;;
72882;SDS011;61017;37.812;-122.286;2022-12-31T00:52:45;5.72;;;2.55;;
72882;SDS011;61017;37.812;-122.286;2022-12-31T00:54:35;7.75;;;2.60;;
72882;SDS011;61017;37.812;-122.286;2022-12-31T00:56:26;6.53;;;2.55;;
72882;SDS011;61017;37.812;-122.286;2022-12-31T00:58:17;7.28;;;2.40;;
72882;SDS011;61017;37.812;-122.286;2022-12-31T01:00:08;5.72;;;2.42;;
72882;SDS011;61017;37.812;-122.286;2022-12-31T01:01:58;7.80;;;2.53;;
72882;SDS011;61017;37.812;-122.286;2022-12-31T01:03:50;5.80;;;2.63;;
72882;SDS011;61017;37.812;-122.286;2022-12-31T01:05:41;6.80;;;2.50;;
72882;SDS011;61017;37.812;-122.286;2022-12-31T01:07:31;7.53;;;2.75;;
72882;SDS011;61017;37.812;-122.286;2022-12-31T01:09:21;6.43;;;2.60;;
72882;SDS011;61017;37.812;-122.286;2022-12-31T01:11:12;6.18;;;2.67;;
72882;SDS011;61017;37.812;-122.286;2022-12-31T01:13:02;6.00;;;2.65;;
72882;SDS011;61017;37.812;-122.286;2022-12-31T01:14:52;6.25;;;2.60;;
72882;SDS011;61017;37.812;-122.286;2022-12-31T01:16:44;6.35;;;2.60;;
72882;SDS011;61017;37.812;-122.286;2022-12-31T01:18:35;6.27;;;2.50;;
72882;SDS011;61017;37.812;-122.286;2022-12-31T01:20:26;7.80;;;2.58;;
72882;SDS011;61017;37.812;-122.286;2022-12-31T01:22:16;7.63;;;2.65;;
72882;SDS011;61017;37.812;-122.286;2022-12-31T01:24:07;10.23;;;2.85;;
72882;SDS011;61017;37.812;-122.286;2022-12-31T01:25:59;5.97;;;2.40;;
72882;SDS011;61017;37.812;-122.286;2022-12-31T01:27:50;6.10;;;2.22;;
72882;SDS011;61017;37.812;-122.286;2022-12-31T01:29:40;6.78;;;2.70;;
72882;SDS011;61017;37.812;-122.286;2022-12-31T01:31:31;6.60;;;2.30;;
72882;SDS011;61017;37.812;-122.286;2022-12-31T01:33:22;5.72;;;2.22;;
72882;SDS011;61017;37.812;-122.286;2022-12-31T01:35:13;5.68;;;2.28;;
72882;SDS011;61017;37.812;-122.286;2022-12-31T01:37:03;5.95;;;2.40;;
72882;SDS011;61017;37.812;-122.286;2022-12-31T01:38:54;5.75;;;2.67;;
72882;SDS011;61017;37.812;-122.286;2022-12-31T01:40:46;6.72;;;2.60;;
72882;SDS011;61017;37.812;-122.286;2022-12-31T01:42:36;7.57;;;2.58;;
72882;SDS011;61017;37.812;-122.286;2022-12-31T01:46:18;6.68;;;2.47;;
72882;SDS011;61017;37.812;-122.286;2022-12-31T01:48:28;6.82;;;2.40;;
72882;SDS011;61017;37.812;-122.286;2022-12-31T01:52:36;4.38;;;2.03;;
72882;SDS011;61017;37.812;-122.286;2022-12-31T01:54:30;5.25;;;2.13;;
72882;SDS011;61017;37.812;-122.286;2022-12-31T01:56:25;7.68;;;2.45;;
72882;SDS011;61017;37.812;-122.286;2022-12-31T01:58:35;5.45;;;2.20;;
72882;SDS011;61017;37.812;-122.286;2022-12-31T02:00:30;6.45;;;2.33;;
72882;SDS011;61017;37.812;-122.286;2022-12-31T02:02:21;5.20;;;2.28;;
72882;SDS011;61017;37.812;-122.286;2022-12-31T02:04:11;4.85;;;2.13;;
72882;SDS011;61017;37.812;-122.286;2022-12-31T02:06:04;5.70;;;2.22;;
72882;SDS011;61017;37.812;-122.286;2022-12-31T02:08:04;5.35;;;2.20;;
72882;SDS011;61017;37.812;-122.286;2022-12-31T02:09:55;6.28;;;2.53;;
72882;SDS011;61017;37.812;-122.286;2022-12-31T02:11:46;5.55;;;2.20;;
72882;SDS011;61017;37.812;-122.286;2022-12-31T02:13:36;4.93;;;2.10;;
72882;SDS011;61017;37.812;-122.286;2022-12-31T02:18:06;7.60;;;2.40;;
72882;SDS011;61017;37.812;-122.286;2022-12-31T02:22:33;6.65;;;2.17;;
72882;SDS011;61017;37.812;-122.286;2022-12-31T02:26:52;5.93;;;2.00;;
72882;SDS011;61017;37.812;-122.286;2022-12-31T02:29:11;5.35;;;2.20;;
72882;SDS011;61017;37.812;-122.286;2022-12-31T02:31:27;4.53;;;2.22;;
72882;SDS011;61017;37.812;-122.286;2022-12-31T02:33:45;4.32;;;2.35;;
72882;SDS011;61017;37.812;-122.286;2022-12-31T02:37:46;4.97;;;2.08;;
72882;SDS011;61017;37.812;-122.286;2022-12-31T02:39:45;3.38;;;2.08;;
72882;SDS011;61017;37.812;-122.286;2022-12-31T02:41:36;3.75;;;1.92;;
72882;SDS011;61017;37.812;-122.286;2022-12-31T02:43:27;3.45;;;1.63;;
72882;SDS011;61017;37.812;-122.286;2022-12-31T02:45:18;4.60;;;2.50;;
72882;SDS011;61017;37.812;-122.286;2022-12-31T02:47:22;4.05;;;1.88;;
72882;SDS011;61017;37.812;-122.286;2022-12-31T02:49:22;3.13;;;1.98;;
72882;SDS011;61017;37.812;-122.286;2022-12-31T02:56:08;3.20;;;1.75;;
72882;SDS011;61017;37.812;-122.286;2022-12-31T03:00:19;4.55;;;1.83;;
72882;SDS011;61017;37.812;-122.286;2022-12-31T03:02:11;3.30;;;1.90;;
72882;SDS011;61017;37.812;-122.286;2022-12-31T03:04:03;4.20;;;1.88;;
72882;SDS011;61017;37.812;-122.286;2022-12-31T03:05:54;3.25;;;1.75;;
72882;SDS011;61017;37.812;-122.286;2022-12-31T03:07:45;4.28;;;1.88;;
72882;SDS011;61017;37.812;-122.286;2022-12-31T03:09:35;5.47;;;2.03;;
72882;SDS011;61017;37.812;-122.286;2022-12-31T03:11:25;4.75;;;1.90;;
72882;SDS011;61017;37.812;-122.286;2022-12-31T03:13:16;3.13;;;1.77;;
72882;SDS011;61017;37.812;-122.286;2022-12-31T03:15:06;4.28;;;2.10;;
72882;SDS011;61017;37.812;-122.286;2022-12-31T03:16:59;3.67;;;2.05;;
72882;SDS011;61017;37.812;-122.286;2022-12-31T03:18:49;3.75;;;1.83;;
72882;SDS011;61017;37.812;-122.286;2022-12-31T03:20:46;4.05;;;1.83;;
72882;SDS011;61017;37.812;-122.286;2022-12-31T03:22:39;3.88;;;2.00;;
72882;SDS011;61017;37.812;-122.286;2022-12-31T03:24:30;4.25;;;2.20;;
72882;SDS011;61017;37.812;-122.286;2022-12-31T03:26:24;4.25;;;1.90;;
72882;SDS011;61017;37.812;-122.286;2022-12-31T03:28:15;5.15;;;2.17;;
72882;SDS011;61017;37.812;-122.286;2022-12-31T03:31:59;4.60;;;2.00;;
72882;SDS011;61017;37.812;-122.286;2022-12-31T03:33:49;4.70;;;2.00;;
72882;SDS011;61017;37.812;-122.286;2022-12-31T03:35:40;5.38;;;2.30;;
72882;SDS011;61017;37.812;-122.286;2022-12-31T03:37:31;5.10;;;2.20;;
72882;SDS011;61017;37.812;-122.286;2022-12-31T03:39:22;4.20;;;2.15;;
72882;SDS011;61017;37.812;-122.286;2022-12-31T03:41:12;5.18;;;2.10;;
72882;SDS011;61017;37.812;-122.286;2022-12-31T03:43:02;3.67;;;2.00;;
72882;SDS011;61017;37.812;-122.286;2022-12-31T03:44:52;5.82;;;2.30;;
72882;SDS011;61017;37.812;-122.286;2022-12-31T03:46:43;4.15;;;2.08;;
72882;SDS011;61017;37.812;-122.286;2022-12-31T03:48:33;5.95;;;2.08;;
72882;SDS011;61017;37.812;-122.286;2022-12-31T03:50:23;5.13;;;2.20;;
72882;SDS011;61017;37.812;-122.286;2022-12-31T03:52:13;4.80;;;2.30;;
72882;SDS011;61017;37.812;-122.286;2022-12-31T03:54:04;4.18;;;2.30;;
72882;SDS011;61017;37.812;-122.286;2022-12-31T03:55:54;5.03;;;2.13;;
72882;SDS011;61017;37.812;-122.286;2022-12-31T03:57:44;5.45;;;2.15;;
72882;SDS011;61017;37.812;-122.286;2022-12-31T03:59:34;5.63;;;2.30;;
72882;SDS011;61017;37.812;-122.286;2022-12-31T04:01:24;4.30;;;2.00;;
72882;SDS011;61017;37.812;-122.286;2022-12-31T04:03:14;5.60;;;2.10;;
72882;SDS011;61017;37.812;-122.286;2022-12-31T04:05:05;6.35;;;2.40;;
72882;SDS011;61017;37.812;-122.286;2022-12-31T04:06:56;5.03;;;2.22;;
72882;SDS011;61017;37.812;-122.286;2022-12-31T04:08:46;4.97;;;2.10;;
72882;SDS011;61017;37.812;-122.286;2022-12-31T04:10:36;4.45;;;1.95;;
72882;SDS011;61017;37.812;-122.286;2022-12-31T04:12:27;6.35;;;2.35;;
72882;SDS011;61017;37.812;-122.286;2022-12-31T04:14:17;4.85;;;2.40;;
72882;SDS011;61017;37.812;-122.286;2022-12-31T04:16:07;5.93;;;2.25;;
72882;SDS011;61017;37.812;-122.286;2022-12-31T04:17:58;8.27;;;2.42;;
72882;SDS011;61017;37.812;-122.286;2022-12-31T04:19:48;5.78;;;2.22;;
72882;SDS011;61017;37.812;-122.286;2022-12-31T04:21:38;6.45;;;2.30;;
72882;SDS011;61017;37.812;-122.286;2022-12-31T04:23:28;4.95;;;2.30;;
72882;SDS011;61017;37.812;-122.286;2022-12-31T04:25:18;5.78;;;2.30;;
72882;SDS011;61017;37.812;-122.286;2022-12-31T04:27:09;6.15;;;2.10;;
72882;SDS011;61017;37.812;-122.286;2022-12-31T04:29:00;3.97;;;2.15;;
72882;SDS011;61017;37.812;-122.286;2022-12-31T04:30:51;5.07;;;2.05;;
72882;SDS011;61017;37.812;-122.286;2022-12-31T04:32:41;5.95;;;2.40;;
72882;SDS011;61017;37.812;-122.286;2022-12-31T04:34:31;6.85;;;2.40;;
72882;SDS011;61017;37.812;-122.286;2022-12-31T04:36:21;5.65;;;2.30;;
72882;SDS011;61017;37.812;-122.286;2022-12-31T04:38:12;7.00;;;2.30;;
72882;SDS011;61017;37.812;-122.286;2022-12-31T04:40:02;6.45;;;2.60;;
72882;SDS011;61017;37.812;-122.286;2022-12-31T04:41:52;5.78;;;2.30;;
72882;SDS011;61017;37.812;-122.286;2022-12-31T04:43:43;5.68;;;2.58;;
72882;SDS011;61017;37.812;-122.286;2022-12-31T04:45:38;4.30;;;2.30;;
72882;SDS011;61017;37.812;-122.286;2022-12-31T04:47:28;6.75;;;2.65;;
72882;SDS011;61017;37.812;-122.286;2022-12-31T04:49:18;5.53;;;2.80;;
72882;SDS011;61017;37.812;-122.286;2022-12-31T04:51:08;7.45;;;2.42;;
72882;SDS011;61017;37.812;-122.286;2022-12-31T04:52:59;5.97;;;2.60;;
72882;SDS011;61017;37.812;-122.286;2022-12-31T04:54:49;7.20;;;2.47;;
72882;SDS011;61017;37.812;-122.286;2022-12-31T04:56:39;5.50;;;2.70;;
72882;SDS011;61017;37.812;-122.286;2022-12-31T04:58:29;5.50;;;2.35;;
72882;SDS011;61017;37.812;-122.286;2022-12-31T05:00:19;7.55;;;2.60;;
72882;SDS011;61017;37.812;-122.286;2022-12-31T05:02:09;5.13;;;2.50;;
72882;SDS011;61017;37.812;-122.286;2022-12-31T05:03:59;6.57;;;2.45;;
72882;SDS011;61017;37.812;-122.286;2022-12-31T05:05:49;6.63;;;2.55;;
72882;SDS011;61017;37.812;-122.286;2022-12-31T05:07:39;7.20;;;2.40;;
72882;SDS011;61017;37.812;-122.286;2022-12-31T05:09:29;4.88;;;2.15;;
72882;SDS011;61017;37.812;-122.286;2022-12-31T05:11:19;6.45;;;2.40;;
72882;SDS011;61017;37.812;-122.286;2022-12-31T05:13:09;5.80;;;2.28;;
72882;SDS011;61017;37.812;-122.286;2022-12-31T05:15:00;6.80;;;2.60;;
72882;SDS011;61017;37.812;-122.286;2022-12-31T05:16:50;5.45;;;2.60;;
72882;SDS011;61017;37.812;-122.286;2022-12-31T05:18:40;6.72;;;2.50;;
72882;SDS011;61017;37.812;-122.286;2022-12-31T05:20:31;6.40;;;2.70;;
72882;SDS011;61017;37.812;-122.286;2022-12-31T05:22:21;6.50;;;2.65;;
72882;SDS011;61017;37.812;-122.286;2022-12-31T05:24:11;6.85;;;2.58;;
72882;SDS011;61017;37.812;-122.286;2022-12-31T05:26:02;5.75;;;2.22;;
72882;SDS011;61017;37.812;-122.286;2022-12-31T05:27:52;6.10;;;2.67;;
72882;SDS011;61017;37.812;-122.286;2022-12-31T05:29:42;6.95;;;2.60;;
72882;SDS011;61017;37.812;-122.286;2022-12-31T05:31:32;4.95;;;2.38;;
72882;SDS011;61017;37.812;-122.286;2022-12-31T05:33:22;8.13;;;2.42;;
72882;SDS011;61017;37.812;-122.286;2022-12-31T05:35:12;7.15;;;2.53;;
72882;SDS011;61017;37.812;-122.286;2022-12-31T05:37:03;7.57;;;2.50;;
72882;SDS011;61017;37.812;-122.286;2022-12-31T05:38:53;6.15;;;2.60;;
72882;SDS011;61017;37.812;-122.286;2022-12-31T05:40:43;7.10;;;2.50;;
72882;SDS011;61017;37.812;-122.286;2022-12-31T05:42:33;6.05;;;2.05;;
72882;SDS011;61017;37.812;-122.286;2022-12-31T05:44:23;6.30;;;2.47;;
72882;SDS011;61017;37.812;-122.286;2022-12-31T05:46:13;5.55;;;2.28;;
72882;SDS011;61017;37.812;-122.286;2022-12-31T05:48:04;5.38;;;2.30;;
72882;SDS011;61017;37.812;-122.286;2022-12-31T05:49:54;5.80;;;2.58;;
72882;SDS011;61017;37.812;-122.286;2022-12-31T05:51:45;6.15;;;2.45;;
72882;SDS011;61017;37.812;-122.286;2022-12-31T05:53:35;5.75;;;2.17;;
72882;SDS011;61017;37.812;-122.286;2022-12-31T05:55:25;6.97;;;2.60;;
72882;SDS011;61017;37.812;-122.286;2022-12-31T05:57:15;5.88;;;2.47;;
72882;SDS011;61017;37.812;-122.286;2022-12-31T05:59:05;4.85;;;1.98;;
72882;SDS011;61017;37.812;-122.286;2022-12-31T06:00:55;5.68;;;2.40;;
72882;SDS011;61017;37.812;-122.286;2022-12-31T06:02:46;4.97;;;2.10;;
72882;SDS011;61017;37.812;-122.286;2022-12-31T06:04:36;6.85;;;2.10;;
72882;SDS011;61017;37.812;-122.286;2022-12-31T06:06:26;4.38;;;2.10;;
72882;SDS011;61017;37.812;-122.286;2022-12-31T06:08:16;4.78;;;2.20;;
72882;SDS011;61017;37.812;-122.286;2022-12-31T06:10:06;5.13;;;2.15;;
72882;SDS011;61017;37.812;-122.286;2022-12-31T06:11:57;7.03;;;2.25;;
72882;SDS011;61017;37.812;-122.286;2022-12-31T06:13:47;5.43;;;2.13;;
72882;SDS011;61017;37.812;-122.286;2022-12-31T06:15:38;4.57;;;2.13;;
72882;SDS011;61017;37.812;-122.286;2022-12-31T06:17:28;6.53;;;2.08;;
72882;SDS011;61017;37.812;-122.286;2022-12-31T06:19:18;6.60;;;2.30;;
72882;SDS011;61017;37.812;-122.286;2022-12-31T06:21:09;5.40;;;2.20;;
72882;SDS011;61017;37.812;-122.286;2022-12-31T06:22:59;5.05;;;2.10;;
72882;SDS011;61017;37.812;-122.286;2022-12-31T06:24:49;5.35;;;2.08;;
72882;SDS011;61017;37.812;-122.286;2022-12-31T06:26:39;6.95;;;2.10;;
72882;SDS011;61017;37.812;-122.286;2022-12-31T06:28:29;4.53;;;2.22;;
72882;SDS011;61017;37.812;-122.286;2022-12-31T06:30:19;11.77;;;2.40;;
72882;SDS011;61017;37.812;-122.286;2022-12-31T06:32:10;7.72;;;2.20;;
72882;SDS011;61017;37.812;-122.286;2022-12-31T06:34:00;9.95;;;2.00;;
72882;SDS011;61017;37.812;-122.286;2022-12-31T06:35:54;6.35;;;2.30;;
72882;SDS011;61017;37.812;-122.286;2022-12-31T06:37:45;4.70;;;2.20;;
72882;SDS011;61017;37.812;-122.286;2022-12-31T06:39:35;5.65;;;2.00;;
72882;SDS011;61017;37.812;-122.286;2022-12-31T06:41:25;6.43;;;2.00;;
72882;SDS011;61017;37.812;-122.286;2022-12-31T06:43:15;9.63;;;2.30;;
72882;SDS011;61017;37.812;-122.286;2022-12-31T06:45:05;5.00;;;1.80;;
72882;SDS011;61017;37.812;-122.286;2022-12-31T06:46:56;4.65;;;1.75;;
72882;SDS011;61017;37.812;-122.286;2022-12-31T06:48:45;7.18;;;2.10;;
72882;SDS011;61017;37.812;-122.286;2022-12-31T06:50:36;6.25;;;1.83;;
72882;SDS011;61017;37.812;-122.286;2022-12-31T06:52:26;7.28;;;2.08;;
72882;SDS011;61017;37.812;-122.286;2022-12-31T06:54:16;4.35;;;1.52;;
72882;SDS011;61017;37.812;-122.286;2022-12-31T06:56:06;5.05;;;1.75;;
72882;SDS011;61017;37.812;-122.286;2022-12-31T06:58:01;5.15;;;1.80;;
72882;SDS011;61017;37.812;-122.286;2022-12-31T06:59:51;4.45;;;1.73;;
72882;SDS011;61017;37.812;-122.286;2022-12-31T07:01:47;3.90;;;1.80;;
72882;SDS011;61017;37.812;-122.286;2022-12-31T07:06:20;5.47;;;1.83;;
72882;SDS011;61017;37.812;-122.286;2022-12-31T07:13:00;3.80;;;1.77;;
72882;SDS011;61017;37.812;-122.286;2022-12-31T07:15:15;6.30;;;1.90;;
72882;SDS011;61017;37.812;-122.286;2022-12-31T07:21:33;4.32;;;1.73;;
72882;SDS011;61017;37.812;-122.286;2022-12-31T07:23:25;4.53;;;1.93;;
72882;SDS011;61017;37.812;-122.286;2022-12-31T07:25:16;6.30;;;1.77;;
72882;SDS011;61017;37.812;-122.286;2022-12-31T07:29:07;4.45;;;1.63;;
72882;SDS011;61017;37.812;-122.286;2022-12-31T07:33:01;4.28;;;1.60;;
72882;SDS011;61017;37.812;-122.286;2022-12-31T07:37:22;6.60;;;1.70;;
72882;SDS011;61017;37.812;-122.286;2022-12-31T07:41:32;5.32;;;1.40;;
72882;SDS011;61017;37.812;-122.286;2022-12-31T07:47:42;5.32;;;1.52;;
72882;SDS011;61017;37.812;-122.286;2022-12-31T07:49:33;4.93;;;1.75;;
72882;SDS011;61017;37.812;-122.286;2022-12-31T07:51:25;3.88;;;1.35;;
72882;SDS011;61017;37.812;-122.286;2022-12-31T07:53:15;4.65;;;1.67;;
72882;SDS011;61017;37.812;-122.286;2022-12-31T07:55:06;5.00;;;1.58;;
72882;SDS011;61017;37.812;-122.286;2022-12-31T07:56:55;4.38;;;1.60;;
72882;SDS011;61017;37.812;-122.286;2022-12-31T07:59:04;7.07;;;1.42;;
72882;SDS011;61017;37.812;-122.286;2022-12-31T08:01:15;3.33;;;1.30;;
72882;SDS011;61017;37.812;-122.286;2022-12-31T08:05:49;4.20;;;1.50;;
72882;SDS011;61017;37.812;-122.286;2022-12-31T08:08:00;3.28;;;1.30;;
72882;SDS011;61017;37.812;-122.286;2022-12-31T08:12:08;6.03;;;1.40;;
72882;SDS011;61017;37.812;-122.286;2022-12-31T08:13:59;4.85;;;1.40;;
72882;SDS011;61017;37.812;-122.286;2022-12-31T08:15:50;2.90;;;1.30;;
72882;SDS011;61017;37.812;-122.286;2022-12-31T08:17:40;3.50;;;1.40;;
72882;SDS011;61017;37.812;-122.286;2022-12-31T08:19:31;5.10;;;1.20;;
72882;SDS011;61017;37.812;-122.286;2022-12-31T08:21:34;4.15;;;1.40;;
72882;SDS011;61017;37.812;-122.286;2022-12-31T08:23:42;3.15;;;1.25;;
72882;SDS011;61017;37.812;-122.286;2022-12-31T08:30:02;3.67;;;1.13;;
72882;SDS011;61017;37.812;-122.286;2022-12-31T08:34:24;2.83;;;1.20;;
72882;SDS011;61017;37.812;-122.286;2022-12-31T08:36:10;4.22;;;1.40;;
72882;SDS011;61017;37.812;-122.286;2022-12-31T08:42:40;3.10;;;1.25;;
72882;SDS011;61017;37.812;-122.286;2022-12-31T08:48:41;4.43;;;1.30;;
72882;SDS011;61017;37.812;-122.286;2022-12-31T08:50:31;3.33;;;1.15;;
72882;SDS011;61017;37.812;-122.286;2022-12-31T08:52:23;3.97;;;1.35;;
72882;SDS011;61017;37.812;-122.286;2022-12-31T08:54:15;3.40;;;1.30;;
72882;SDS011;61017;37.812;-122.286;2022-12-31T08:56:28;2.50;;;1.20;;
72882;SDS011;61017;37.812;-122.286;2022-12-31T09:01:11;2.20;;;1.10;;
72882;SDS011;61017;37.812;-122.286;2022-12-31T09:03:10;2.42;;;1.23;;
72882;SDS011;61017;37.812;-122.286;2022-12-31T09:05:24;3.13;;;1.10;;
72882;SDS011;61017;37.812;-122.286;2022-12-31T09:07:39;3.45;;;1.20;;
72882;SDS011;61017;37.812;-122.286;2022-12-31T09:11:53;1.75;;;0.90;;
72882;SDS011;61017;37.812;-122.286;2022-12-31T09:18:27;3.00;;;1.00;;
72882;SDS011;61017;37.812;-122.286;2022-12-31T09:20:26;2.40;;;1.20;;
72882;SDS011;61017;37.812;-122.286;2022-12-31T09:22:18;2.00;;;1.10;;
72882;SDS011;61017;37.812;-122.286;2022-12-31T09:24:09;2.58;;;1.00;;
72882;SDS011;61017;37.812;-122.286;2022-12-31T09:26:07;4.13;;;1.10;;
72882;SDS011;61017;37.812;-122.286;2022-12-31T09:28:33;2.40;;;0.93;;
72882;SDS011;61017;37.812;-122.286;2022-12-31T09:30:57;2.35;;;1.08;;
72882;SDS011;61017;37.812;-122.286;2022-12-31T09:33:05;3.72;;;1.30;;
72882;SDS011;61017;37.812;-122.286;2022-12-31T09:39:37;4.18;;;1.10;;
72882;SDS011;61017;37.812;-122.286;2022-12-31T09:57:26;2.17;;;0.93;;
72882;SDS011;61017;37.812;-122.286;2022-12-31T09:59:39;3.30;;;1.20;;
72882;SDS011;61017;37.812;-122.286;2022-12-31T10:01:49;3.65;;;1.00;;
72882;SDS011;61017;37.812;-122.286;2022-12-31T10:06:26;2.65;;;1.10;;
72882;SDS011;61017;37.812;-122.286;2022-12-31T10:08:38;1.55;;;0.90;;
72882;SDS011;61017;37.812;-122.286;2022-12-31T10:10:41;2.58;;;1.10;;
72882;SDS011;61017;37.812;-122.286;2022-12-31T10:21:35;2.22;;;1.10;;
72882;SDS011;61017;37.812;-122.286;2022-12-31T10:24:01;4.63;;;1.00;;
72882;SDS011;61017;37.812;-122.286;2022-12-31T10:28:24;2.65;;;1.00;;
72882;SDS011;61017;37.812;-122.286;2022-12-31T10:30:25;1.70;;;1.00;;
72882;SDS011;61017;37.812;-122.286;2022-12-31T10:32:29;1.98;;;1.00;;
72882;SDS011;61017;37.812;-122.286;2022-12-31T10:34:52;1.40;;;1.05;;
72882;SDS011;61017;37.812;-122.286;2022-12-31T10:37:02;1.90;;;0.93;;
72882;SDS011;61017;37.812;-122.286;2022-12-31T10:39:10;3.05;;;1.08;;
72882;SDS011;61017;37.812;-122.286;2022-12-31T10:41:16;2.58;;;1.20;;
72882;SDS011;61017;37.812;-122.286;2022-12-31T10:52:52;2.65;;;1.10;;
72882;SDS011;61017;37.812;-122.286;2022-12-31T10:56:59;1.75;;;1.00;;
72882;SDS011;61017;37.812;-122.286;2022-12-31T11:12:11;1.80;;;1.00;;
72882;SDS011;61017;37.812;-122.286;2022-12-31T11:20:52;2.97;;;1.05;;
72882;SDS011;61017;37.812;-122.286;2022-12-31T11:23:01;1.58;;;0.90;;
72882;SDS011;61017;37.812;-122.286;2022-12-31T11:29:31;3.05;;;1.00;;
72882;SDS011;61017;37.812;-122.286;2022-12-31T11:35:58;2.25;;;1.10;;
72882;SDS011;61017;37.812;-122.286;2022-12-31T11:40:25;1.50;;;0.90;;
72882;SDS011;61017;37.812;-122.286;2022-12-31T11:42:32;2.05;;;1.00;;
72882;SDS011;61017;37.812;-122.286;2022-12-31T11:44:45;1.50;;;0.90;;
72882;SDS011;61017;37.812;-122.286;2022-12-31T11:55:46;1.83;;;0.90;;
72882;SDS011;61017;37.812;-122.286;2022-12-31T11:57:50;1.75;;;1.00;;
72882;SDS011;61017;37.812;-122.286;2022-12-31T12:03:44;1.50;;;0.85;;
72882;SDS011;61017;37.812;-122.286;2022-12-31T12:05:35;2.08;;;0.90;;
72882;SDS011;61017;37.812;-122.286;2022-12-31T12:07:27;1.33;;;0.80;;
72882;SDS011;61017;37.812;-122.286;2022-12-31T12:09:25;1.50;;;1.00;;
72882;SDS011;61017;37.812;-122.286;2022-12-31T12:11:21;1.60;;;0.80;;
72882;SDS011;61017;37.812;-122.286;2022-12-31T12:13:19;1.63;;;1.05;;
72882;SDS011;61017;37.812;-122.286;2022-12-31T12:15:19;1.42;;;0.90;;
72882;SDS011;61017;37.812;-122.286;2022-12-31T12:17:24;1.40;;;1.00;;
72882;SDS011;61017;37.812;-122.286;2022-12-31T12:19:16;3.38;;;0.80;;
72882;SDS011;61017;37.812;-122.286;2022-12-31T12:21:08;3.75;;;1.20;;
72882;SDS011;61017;37.812;-122.286;2022-12-31T12:25:05;2.78;;;0.90;;
72882;SDS011;61017;37.812;-122.286;2022-12-31T12:27:03;2.42;;;0.80;;
72882;SDS011;61017;37.812;-122.286;2022-12-31T12:29:09;1.60;;;0.88;;
72882;SDS011;61017;37.812;-122.286;2022-12-31T12:31:01;1.48;;;0.90;;
72882;SDS011;61017;37.812;-122.286;2022-12-31T12:32:59;2.87;;;0.90;;
72882;SDS011;61017;37.812;-122.286;2022-12-31T12:34:51;1.65;;;0.70;;
72882;SDS011;61017;37.812;-122.286;2022-12-31T12:36:45;1.20;;;0.80;;
72882;SDS011;61017;37.812;-122.286;2022-12-31T12:38:35;1.23;;;0.80;;
72882;SDS011;61017;37.812;-122.286;2022-12-31T12:40:26;1.30;;;0.70;;
72882;SDS011;61017;37.812;-122.286;2022-12-31T12:42:16;1.35;;;0.88;;
72882;SDS011;61017;37.812;-122.286;2022-12-31T12:44:07;1.25;;;0.73;;
72882;SDS011;61017;37.812;-122.286;2022-12-31T12:46:17;2.25;;;0.80;;
72882;SDS011;61017;37.812;-122.286;2022-12-31T12:48:28;2.15;;;0.88;;
72882;SDS011;61017;37.812;-122.286;2022-12-31T12:50:37;1.25;;;0.75;;
72882;SDS011;61017;37.812;-122.286;2022-12-31T12:55:03;1.10;;;0.77;;
72882;SDS011;61017;37.812;-122.286;2022-12-31T13:01:09;1.05;;;0.70;;
72882;SDS011;61017;37.812;-122.286;2022-12-31T13:10:02;2.47;;;0.80;;
72882;SDS011;61017;37.812;-122.286;2022-12-31T13:13:14;1.25;;;0.70;;
72882;SDS011;61017;37.812;-122.286;2022-12-31T13:14:46;2.47;;;0.90;;
72882;SDS011;61017;37.812;-122.286;2022-12-31T13:16:44;2.20;;;0.70;;
72882;SDS011;61017;37.812;-122.286;2022-12-31T13:18:48;3.35;;;0.70;;
72882;SDS011;61017;37.812;-122.286;2022-12-31T13:20:54;1.70;;;0.73;;
72882;SDS011;61017;37.812;-122.286;2022-12-31T13:23:01;1.73;;;0.82;;
72882;SDS011;61017;37.812;-122.286;2022-12-31T13:27:22;2.78;;;0.90;;
72882;SDS011;61017;37.812;-122.286;2022-12-31T13:29:20;1.30;;;0.65;;
72882;SDS011;61017;37.812;-122.286;2022-12-31T13:31:14;1.17;;;0.70;;
72882;SDS011;61017;37.812;-122.286;2022-12-31T13:33:14;1.20;;;0.70;;
72882;SDS011;61017;37.812;-122.286;2022-12-31T13:35:17;1.40;;;0.80;;
72882;SDS011;61017;37.812;-122.286;2022-12-31T13:39:29;1.55;;;0.70;;
72882;SDS011;61017;37.812;-122.286;2022-12-31T13:43:23;2.88;;;0.70;;
72882;SDS011;61017;37.812;-122.286;2022-12-31T13:45:36;2.05;;;0.70;;
72882;SDS011;61017;37.812;-122.286;2022-12-31T13:47:31;2.30;;;0.80;;
72882;SDS011;61017;37.812;-122.286;2022-12-31T13:53:44;1.40;;;0.70;;
72882;SDS011;61017;37.812;-122.286;2022-12-31T13:55:40;1.13;;;0.70;;
72882;SDS011;61017;37.812;-122.286;2022-12-31T13:59:44;1.83;;;0.70;;
72882;SDS011;61017;37.812;-122.286;2022-12-31T14:01:41;0.90;;;0.50;;
72882;SDS011;61017;37.812;-122.286;2022-12-31T14:05:50;1.00;;;0.63;;
72882;SDS011;61017;37.812;-122.286;2022-12-31T14:07:54;0.95;;;0.60;;
72882;SDS011;61017;37.812;-122.286;2022-12-31T14:09:46;1.92;;;0.73;;
72882;SDS011;61017;37.812;-122.286;2022-12-31T14:18:53;1.17;;;0.70;;
72882;SDS011;61017;37.812;-122.286;2022-12-31T14:21:08;1.48;;;0.70;;
72882;SDS011;61017;37.812;-122.286;2022-12-31T14:23:40;0.90;;;0.60;;
72882;SDS011;61017;37.812;-122.286;2022-12-31T14:25:39;1.70;;;0.80;;
72882;SDS011;61017;37.812;-122.286;2022-12-31T14:27:41;0.93;;;0.52;;
72882;SDS011;61017;37.812;-122.286;2022-12-31T14:31:38;1.05;;;0.60;;